High Level Airport
CYOJ : now visible

Airfield :











YOU CAN JOIN US ON...

 
LOGIN :

Register | Disclaimer

   EN    FR    IT 

 









Legend :    VFR   Marginal VFR   IFR   Intensive IFR   Very Intensive IFR
Visi :
Ceiling :
>= 8 km
>= 3000ft
5 to 8 km
1000 to 3000 ft
1500m to 5 km
500 to 1000 ft
800 to 1500m
200 to 500 ft
< 800m
< 200 ft
Symbols :   Thunderstorms  Fog  Heavy snow  Heavy precipitations  Wind > 20 kt






- Airport Elevation : 1110 ft
- IATA code : YOJ


CYOJ - High Level

CURRENT METAR :
  • 111900Z 22003KT 140V240 15SM FEW260 M15/M18 A2997 RMK CI2 SLP189

EXPIRED METARs :
  • 111800Z 20006KT 150V220 15SM IC FEW260 M17/M19 A3000 RMK CI2 FU SLP200
  • 111700Z 14003KT 15SM IC FEW260 M20/M21 A3004 RMK CI1 FU SLP215

TAF TAF CYOJ
Valid from the 11 at 19:00 until the 12 at 07:00 UTC


111838Z 1119/1207 VRB03KT P6SM FEW260
FM112300 33005KT P6SM BKN260 RMK NXT FCST BY 120100Z



MET'MAP, your aeronautical weather chart ! - Copyright ORBIFLY December 2007 - Disclaimer

ORBIFLY MET'MAP TEAM :

Programming & Development : Alexandra Zaïnal
Concept & Development : Baudouin d'Aumeries
Co-Development & Prog : Marc-Olivier Méhu
Technical & hardware support : Manuel Goepfert

Contact : metmap@orbifly.com




SOURCES & CREDITS :

   NOAA       Earth
Advisory